Time;durP1;ratioP1;P1;durP2;ratioP2;P2;SDS_P1;SDS_P2;PMS_P1;PMS_P2;Temp;Humidity;BMP_temperature;BMP_pressure;BME280_temperature;BME280_humidity;BME280_pressure;Samples;Min_cycle;Max_cycle;Signal;HPM_P1;HPM_P2
2021/11/30 00:00:46;;;;;;;;;;;;;;;20.07;43.79;100401.28;2082612;28;19916;-63
2021/11/30 00:01:47;;;;;;;;;;;;;;;20.07;43.76;100403.16;2083419;28;20305;-63
2021/11/30 00:02:47;;;;;;;;;;;;;;;20.07;43.83;100398.56;2082399;28;19909;-63
2021/11/30 00:03:47;;;;;;;;;;;;;;;20.07;43.79;100403.16;2084039;28;19935;-65
2021/11/30 00:04:48;;;;;;;;;;;;;;;20.07;43.82;100404.03;2082929;28;19908;-65
2021/11/30 00:05:57;;;;;;;;;;;;;;;20.07;43.81;100400.44;2084230;28;19920;-64
2021/11/30 00:06:58;;;;;;;;;;;;;;;20.06;43.83;100407.78;2082695;28;19961;-64
2021/11/30 00:08:02;;;;;;;;;;;;;;;20.06;43.74;100407.78;2082063;28;20006;-64
2021/11/30 00:09:22;;;;;;;;;;;;;;;20.07;43.86;100406.75;2084283;28;20414;-64
2021/11/30 00:11:41;;;;;;;;;;;;;;;20.07;43.77;100414.13;2082783;28;19909;-64
2021/11/30 00:12:42;;;;;;;;;;;;;;;20.05;43.88;100411.50;2083876;28;19916;-64
2021/11/30 00:13:42;;;;;;;;;;;;;;;20.04;43.78;100415.28;2083215;28;20225;-64
2021/11/30 00:14:44;;;;;;;;;;;;;;;20.05;43.74;100414.25;2082840;28;19926;-64
2021/11/30 00:15:45;;;;;;;;;;;;;;;20.05;43.68;100425.19;2084110;28;19938;-63
2021/11/30 00:16:45;;;;;;;;;;;;;;;20.03;43.85;100423.63;2077493;28;19939;-64
2021/11/30 00:17:45;;;;;;;;;;;;;;;20.03;43.69;100424.47;2083230;28;19914;-64
2021/11/30 00:18:46;;;;;;;;;;;;;;;20.03;43.64;100424.47;2070912;28;19909;-64
2021/11/30 00:19:48;;;;;;;;;;;;;;;20.04;43.62;100425.34;2071237;28;19956;-64
2021/11/30 00:20:48;;;;;;;;;;;;;;;20.04;43.75;100425.34;2084510;28;19921;-64
2021/11/30 00:21:49;;;;;;;;;;;;;;;20.02;43.63;100425.50;2081706;28;19916;-64
2021/11/30 00:22:49;;;;;;;;;;;;;;;20.02;43.68;100425.50;2082119;28;19921;-64
2021/11/30 00:23:49;;;;;;;;;;;;;;;20.02;43.75;100433.72;2083685;28;20653;-64
2021/11/30 00:24:51;;;;;;;;;;;;;;;20.01;43.70;100421.03;2080395;28;19916;-64
2021/11/30 00:25:51;;;;;;;;;;;;;;;20.01;43.85;100428.38;2082358;28;19919;-65
2021/11/30 00:26:51;;;;;;;;;;;;;;;20.01;43.74;100431.13;2081249;28;19905;-62
2021/11/30 00:27:52;;;;;;;;;;;;;;;20.00;43.82;100435.72;2080252;28;20369;-62
2021/11/30 00:28:52;;;;;;;;;;;;;;;19.98;43.85;100432.28;2081101;28;20072;-62
2021/11/30 00:29:53;;;;;;;;;;;;;;;20.00;43.87;100430.25;2080653;28;19924;-63
2021/11/30 00:30:53;;;;;;;;;;;;;;;20.00;43.68;100435.72;2083174;28;20632;-62
2021/11/30 00:31:54;;;;;;;;;;;;;;;19.99;43.68;100442.22;2072027;28;20771;-62
2021/11/30 00:32:54;;;;;;;;;;;;;;;20.00;43.89;100443.09;2073222;28;20011;-63
2021/11/30 00:33:54;;;;;;;;;;;;;;;19.99;43.67;100449.53;2082671;28;20187;-63
2021/11/30 00:34:55;;;;;;;;;;;;;;;19.97;43.83;100444.25;2081059;28;19912;-62
2021/11/30 00:36:04;;;;;;;;;;;;;;;19.98;43.75;100453.31;2083676;28;19908;-62
2021/11/30 00:37:04;;;;;;;;;;;;;;;19.97;43.82;100446.97;2081350;28;19915;-62
2021/11/30 00:38:05;;;;;;;;;;;;;;;19.97;43.81;100446.97;2081666;28;20477;-64
2021/11/30 00:39:05;;;;;;;;;;;;;;;19.97;43.71;100446.97;2092350;28;19933;-63
2021/11/30 00:40:06;;;;;;;;;;;;;;;19.96;43.86;100450.69;2085227;28;20009;-63
2021/11/30 00:41:06;;;;;;;;;;;;;;;19.97;43.64;100457.06;2083425;28;20505;-63
2021/11/30 00:42:07;;;;;;;;;;;;;;;19.95;43.79;100443.53;2081149;28;19912;-63
2021/11/30 00:43:08;;;;;;;;;;;;;;;19.97;43.69;100452.44;2081562;28;19920;-64
2021/11/30 00:44:09;;;;;;;;;;;;;;;19.97;43.69;100440.66;2087609;28;20349;-63
2021/11/30 00:45:09;;;;;;;;;;;;;;;19.95;43.78;100449.00;2083090;28;19904;-64
2021/11/30 00:46:18;;;;;;;;;;;;;;;19.96;43.63;100449.84;2082185;28;19916;-64
2021/11/30 00:47:26;;;;;;;;;;;;;;;19.95;43.49;100443.53;2082132;28;19913;-64
2021/11/30 00:48:32;;;;;;;;;;;;;;;19.97;43.54;100454.31;2082357;28;19927;-65
2021/11/30 00:49:32;;;;;;;;;;;;;;;19.97;43.64;100446.97;2082350;28;19923;-64
2021/11/30 00:50:33;;;;;;;;;;;;;;;19.96;43.62;100450.69;2083442;28;19928;-64
2021/11/30 00:51:36;;;;;;;;;;;;;;;19.93;43.67;100440.06;2071931;28;20050;-64
2021/11/30 00:52:36;;;;;;;;;;;;;;;19.97;43.76;100446.97;2081412;28;20369;-66
2021/11/30 00:53:37;;;;;;;;;;;;;;;19.96;43.59;100447.97;2089800;28;19975;-65
2021/11/30 00:54:38;;;;;;;;;;;;;;;19.97;43.68;100446.13;2081846;28;19912;-65
2021/11/30 00:55:38;;;;;;;;;;;;;;;19.95;43.70;100443.53;2084085;28;19967;-65
2021/11/30 00:56:40;;;;;;;;;;;;;;;19.94;43.66;100447.25;2071635;28;19924;-64
2021/11/30 00:57:42;;;;;;;;;;;;;;;19.93;43.66;100445.53;2073104;28;20683;-64
2021/11/30 00:58:42;;;;;;;;;;;;;;;19.93;43.77;100448.28;2082264;28;19974;-64
2021/11/30 00:59:43;;;;;;;;;;;;;;;19.94;43.70;100451.88;2081480;28;19983;-64
2021/11/30 01:00:43;;;;;;;;;;;;;;;19.94;43.77;100447.25;2080415;28;20572;-65
2021/11/30 01:01:45;;;;;;;;;;;;;;;19.94;43.74;100449.13;2074367;28;19948;-65
2021/11/30 01:02:46;;;;;;;;;;;;;;;19.85;43.62;100450.88;2073088;28;19925;-63
2021/11/30 01:03:46;;;;;;;;;;;;;;;19.75;43.58;100452.78;2084684;28;19915;-63
2021/11/30 01:04:47;;;;;;;;;;;;;;;19.57;43.83;100450.72;2081454;28;19916;-62
2021/11/30 01:05:47;;;;;;;;;;;;;;;19.46;44.23;100449.00;2082996;28;19962;-63
2021/11/30 01:06:48;;;;;;;;;;;;;;;19.38;44.48;100448.00;2082024;28;19912;-62
2021/11/30 01:07:48;;;;;;;;;;;;;;;19.31;44.75;100455.06;2083325;28;19921;-62
2021/11/30 01:08:48;;;;;;;;;;;;;;;19.23;44.98;100453.88;2084714;28;20558;-62
2021/11/30 01:09:49;;;;;;;;;;;;;;;19.19;45.01;100455.16;2081749;28;19909;-62
2021/11/30 01:10:49;;;;;;;;;;;;;;;19.17;45.14;100450.84;2082627;28;19921;-62
2021/11/30 01:11:50;;;;;;;;;;;;;;;19.14;45.22;100459.34;2082131;28;20473;-62
2021/11/30 01:12:50;;;;;;;;;;;;;;;19.11;45.34;100455.03;2083777;28;19927;-62
2021/11/30 01:13:50;;;;;;;;;;;;;;;19.10;45.40;100453.28;2086159;28;19966;-62
2021/11/30 01:14:51;;;;;;;;;;;;;;;19.07;45.58;100464.50;2081586;28;19927;-62
2021/11/30 01:15:51;;;;;;;;;;;;;;;19.06;45.54;100457.31;2082789;28;19999;-62
2021/11/30 01:16:52;;;;;;;;;;;;;;;19.03;45.62;100458.47;2078185;28;20600;-62
2021/11/30 01:17:52;;;;;;;;;;;;;;;19.04;45.61;100464.78;2082034;28;19931;-63
2021/11/30 01:18:52;;;;;;;;;;;;;;;19.02;45.72;100461.31;2082923;28;19916;-61
2021/11/30 01:19:53;;;;;;;;;;;;;;;19.01;45.66;100463.19;2083077;28;19927;-62
2021/11/30 01:20:53;;;;;;;;;;;;;;;19.00;45.81;100464.19;2082728;28;19931;-62
2021/11/30 01:21:53;;;;;;;;;;;;;;;18.99;45.82;100461.63;2082565;28;19916;-62
2021/11/30 01:22:54;;;;;;;;;;;;;;;18.98;45.75;100466.19;2082549;28;20398;-62
2021/11/30 01:23:55;;;;;;;;;;;;;;;18.98;45.79;100462.59;2074218;28;20022;-62
2021/11/30 01:24:55;;;;;;;;;;;;;;;18.97;45.82;100467.22;2073876;28;20361;-63
2021/11/30 01:25:56;;;;;;;;;;;;;;;18.97;45.93;100466.34;2082637;28;19916;-62
2021/11/30 01:26:56;;;;;;;;;;;;;;;18.97;45.86;100460.88;2082364;28;20423;-62
2021/11/30 01:27:56;;;;;;;;;;;;;;;18.95;45.82;100465.63;2081466;28;19916;-62
2021/11/30 01:28:57;;;;;;;;;;;;;;;18.93;45.83;100462.16;2083618;28;20018;-62
2021/11/30 01:29:57;;;;;;;;;;;;;;;18.94;45.88;100463.91;2083495;28;20330;-62
2021/11/30 01:30:58;;;;;;;;;;;;;;;18.91;45.98;100464.16;2082897;28;19951;-63
2021/11/30 01:31:59;;;;;;;;;;;;;;;18.93;46.00;100462.16;2083597;28;20026;-63
2021/11/30 01:32:59;;;;;;;;;;;;;;;18.92;46.00;100476.84;2077219;28;19920;-63
2021/11/30 01:33:59;;;;;;;;;;;;;;;18.90;46.03;100473.38;2083878;28;20362;-62
2021/11/30 01:35:00;;;;;;;;;;;;;;;18.90;46.12;100468.78;2084424;28;19920;-63
2021/11/30 01:36:00;;;;;;;;;;;;;;;18.90;45.99;100478.84;2075738;28;20158;-62
2021/11/30 01:37:00;;;;;;;;;;;;;;;18.89;46.05;100475.25;2081802;28;20513;-63
2021/11/30 01:38:01;;;;;;;;;;;;;;;18.89;46.21;100471.63;2083697;28;20299;-63
2021/11/30 01:39:03;;;;;;;;;;;;;;;18.89;45.93;100472.50;2085007;28;19920;-63
2021/11/30 01:40:06;;;;;;;;;;;;;;;18.89;46.23;100475.25;2081571;28;19909;-63
2021/11/30 01:41:07;;;;;;;;;;;;;;;18.89;45.91;100471.63;2082126;28;19977;-63
2021/11/30 01:42:08;;;;;;;;;;;;;;;18.89;46.09;100467.06;2083377;28;19909;-63
2021/11/30 01:43:14;;;;;;;;;;;;;;;18.89;45.96;100466.16;2076449;28;19923;-63
2021/11/30 01:49:24;;;;;;;;;;;;;;;18.88;45.98;100486.31;2083002;28;20027;-62
2021/11/30 01:50:24;;;;;;;;;;;;;;;18.88;45.96;100486.31;2080046;28;19921;-62
2021/11/30 01:51:25;;;;;;;;;;;;;;;18.88;45.98;100486.31;2077826;28;19916;-62
2021/11/30 01:52:26;;;;;;;;;;;;;;;18.89;45.98;100482.56;2088199;28;19976;-63
2021/11/30 01:53:27;;;;;;;;;;;;;;;18.88;45.92;100486.31;2082526;28;19908;-63
2021/11/30 01:54:27;;;;;;;;;;;;;;;18.88;45.92;100486.31;2081876;28;20482;-63
2021/11/30 01:55:28;;;;;;;;;;;;;;;18.88;45.99;100483.56;2082045;28;19952;-62
2021/11/30 01:56:28;;;;;;;;;;;;;;;18.88;46.00;100475.38;2082445;28;19913;-62
2021/11/30 01:57:29;;;;;;;;;;;;;;;18.88;45.93;100478.97;2081028;28;20043;-63
2021/11/30 01:58:29;;;;;;;;;;;;;;;18.88;45.96;100476.22;2083076;28;19916;-62
2021/11/30 01:59:29;;;;;;;;;;;;;;;18.88;45.84;100476.22;2083572;28;19920;-62
2021/11/30 02:00:33;;;;;;;;;;;;;;;18.88;46.03;100475.38;2083654;28;19927;-63
2021/11/30 02:01:46;;;;;;;;;;;;;;;18.89;46.08;100477.09;2077320;28;20419;-63
2021/11/30 02:02:46;;;;;;;;;;;;;;;18.88;45.92;100476.22;2080455;28;19916;-62
2021/11/30 02:03:47;;;;;;;;;;;;;;;18.88;45.98;100470.78;2082757;28;20328;-63
2021/11/30 02:04:47;;;;;;;;;;;;;;;18.88;45.97;100478.97;2082411;28;19924;-63
2021/11/30 02:05:48;;;;;;;;;;;;;;;18.89;45.98;100485.28;2083697;28;20058;-62
2021/11/30 02:06:48;;;;;;;;;;;;;;;18.88;46.11;100491.75;2081955;28;19917;-63
2021/11/30 02:07:48;;;;;;;;;;;;;;;18.89;46.00;100488.03;2082559;28;19920;-62
2021/11/30 02:08:49;;;;;;;;;;;;;;;18.88;46.01;100480.84;2083031;28;19982;-63
2021/11/30 02:09:49;;;;;;;;;;;;;;;18.87;45.87;100485.44;2082298;28;19934;-62
2021/11/30 02:10:49;;;;;;;;;;;;;;;18.89;45.96;100488.91;2083983;28;19912;-62
2021/11/30 02:11:51;;;;;;;;;;;;;;;18.88;46.04;100486.31;2081428;28;20343;-62
2021/11/30 02:12:52;;;;;;;;;;;;;;;18.88;46.03;100476.22;2083110;28;19920;-62
2021/11/30 02:13:52;;;;;;;;;;;;;;;18.88;46.06;100483.56;2083016;28;19915;-62
2021/11/30 02:14:54;;;;;;;;;;;;;;;18.89;45.91;100485.28;2082052;28;19921;-63
2021/11/30 02:15:56;;;;;;;;;;;;;;;18.89;45.96;100485.28;2084066;28;20307;-62
2021/11/30 02:16:56;;;;;;;;;;;;;;;18.89;46.01;100488.03;2082565;28;20319;-62
2021/11/30 02:17:59;;;;;;;;;;;;;;;18.87;45.91;100482.72;2080293;28;19931;-62
2021/11/30 02:19:03;;;;;;;;;;;;;;;18.89;45.97;100488.03;2083271;28;20337;-62
2021/11/30 02:20:04;;;;;;;;;;;;;;;18.89;45.91;100482.56;2081910;28;19916;-62
2021/11/30 02:21:07;;;;;;;;;;;;;;;18.89;46.01;100488.03;2083601;28;19956;-63
2021/11/30 02:22:11;;;;;;;;;;;;;;;18.89;45.88;100485.28;2082812;28;19920;-62
2021/11/30 02:23:19;;;;;;;;;;;;;;;18.89;46.01;100485.28;2081631;28;19948;-63
2021/11/30 02:24:20;;;;;;;;;;;;;;;18.89;45.99;100482.56;2083927;28;20183;-62
2021/11/30 02:25:21;;;;;;;;;;;;;;;18.90;45.92;100481.56;2080834;28;19920;-63
2021/11/30 02:26:21;;;;;;;;;;;;;;;18.89;45.98;100488.91;2084645;28;19922;-62
2021/11/30 02:27:23;;;;;;;;;;;;;;;18.88;45.92;100486.31;2084347;28;20429;-62
2021/11/30 02:28:23;;;;;;;;;;;;;;;18.89;45.93;100488.03;2081339;28;19935;-63
2021/11/30 02:29:23;;;;;;;;;;;;;;;18.90;45.89;100495.22;2083160;28;19916;-62
2021/11/30 02:30:24;;;;;;;;;;;;;;;18.88;45.85;100486.31;2082374;28;19947;-62
2021/11/30 02:31:25;;;;;;;;;;;;;;;18.88;45.95;100491.75;2081783;28;20363;-63
2021/11/30 02:32:26;;;;;;;;;;;;;;;18.88;46.00;100486.31;2079380;28;20012;-62
2021/11/30 02:33:26;;;;;;;;;;;;;;;18.88;46.01;100486.31;2081214;28;19913;-63
2021/11/30 02:34:27;;;;;;;;;;;;;;;18.88;46.01;100480.84;2083247;28;20000;-62
2021/11/30 02:35:45;;;;;;;;;;;;;;;18.88;46.03;100483.56;2084906;28;19917;-63
2021/11/30 02:36:50;;;;;;;;;;;;;;;18.88;45.96;100483.56;2083813;28;19975;-63
2021/11/30 02:37:57;;;;;;;;;;;;;;;18.88;45.87;100486.31;2083364;28;20727;-63
2021/11/30 02:39:07;;;;;;;;;;;;;;;18.88;46.03;100487.16;2077402;28;19917;-63
2021/11/30 02:40:07;;;;;;;;;;;;;;;18.87;46.00;100485.44;2084183;28;20007;-62
2021/11/30 02:41:08;;;;;;;;;;;;;;;18.88;45.85;100481.69;2082848;28;19923;-63
2021/11/30 02:42:08;;;;;;;;;;;;;;;18.88;45.88;100492.63;2084293;28;20480;-62
2021/11/30 02:43:09;;;;;;;;;;;;;;;18.88;45.99;100491.75;2084284;28;20053;-62
2021/11/30 02:44:10;;;;;;;;;;;;;;;18.88;45.98;100497.22;2084151;28;19927;-62
2021/11/30 02:45:10;;;;;;;;;;;;;;;18.88;45.90;100491.75;2085151;28;20422;-63
2021/11/30 02:46:11;;;;;;;;;;;;;;;18.87;45.97;100490.06;2084171;28;20280;-62
2021/11/30 02:47:12;;;;;;;;;;;;;;;18.87;45.96;100495.50;2083228;28;20023;-62
2021/11/30 02:48:13;;;;;;;;;;;;;;;18.85;45.94;100499.22;2084582;28;20457;-62
2021/11/30 02:49:15;;;;;;;;;;;;;;;18.87;45.93;100500.97;2084216;28;20576;-62
2021/11/30 02:50:16;;;;;;;;;;;;;;;18.86;45.93;100500.09;2084219;28;19916;-63
2021/11/30 02:51:16;;;;;;;;;;;;;;;18.85;46.03;100504.69;2083369;28;19912;-62
2021/11/30 02:52:18;;;;;;;;;;;;;;;18.87;45.98;100500.97;2017925;28;1857353;-63
2021/11/30 02:53:21;;;;;;;;;;;;;;;18.87;45.86;100495.50;2084310;28;20195;-63
2021/11/30 02:54:23;;;;;;;;;;;;;;;18.85;45.86;100501.97;2085238;28;20492;-61
2021/11/30 02:55:23;;;;;;;;;;;;;;;18.85;46.00;100506.56;2082613;28;20054;-61
2021/11/30 02:56:25;;;;;;;;;;;;;;;18.86;45.90;100500.09;2085716;28;20720;-61
2021/11/30 02:57:25;;;;;;;;;;;;;;;18.85;45.81;100496.50;2083681;28;19985;-62
2021/11/30 02:58:26;;;;;;;;;;;;;;;18.86;45.94;100494.63;2084455;28;19990;-61
2021/11/30 02:59:28;;;;;;;;;;;;;;;18.85;45.75;100493.75;2086739;28;19917;-61
2021/11/30 03:00:28;;;;;;;;;;;;;;;18.84;45.95;100500.25;2084715;28;20458;-61
2021/11/30 03:01:29;;;;;;;;;;;;;;;18.85;45.95;100495.63;2085878;28;20562;-61
2021/11/30 03:02:29;;;;;;;;;;;;;;;18.85;45.92;100498.38;2085809;28;19987;-62
2021/11/30 03:03:30;;;;;;;;;;;;;;;18.83;45.99;100490.31;2084450;28;19924;-62
2021/11/30 03:04:31;;;;;;;;;;;;;;;18.82;46.03;100487.72;2085258;28;20290;-62
2021/11/30 03:05:31;;;;;;;;;;;;;;;18.82;46.11;100496.78;2084883;28;20013;-61
2021/11/30 03:06:32;;;;;;;;;;;;;;;18.82;45.92;100496.78;2085451;28;20396;-62
2021/11/30 03:07:38;;;;;;;;;;;;;;;18.82;46.05;100494.06;2089029;28;19917;-61
2021/11/30 03:08:39;;;;;;;;;;;;;;;18.82;45.95;100494.06;2080158;28;20762;-62
2021/11/30 03:09:40;;;;;;;;;;;;;;;18.82;46.03;100499.50;2085532;28;20330;-61
2021/11/30 03:10:40;;;;;;;;;;;;;;;18.83;46.02;100501.22;2083590;28;19913;-63
2021/11/30 03:11:40;;;;;;;;;;;;;;;18.83;45.87;100500.38;2084700;28;20756;-62
2021/11/30 03:12:41;;;;;;;;;;;;;;;18.83;46.05;100494.91;2083622;28;20689;-62
2021/11/30 03:13:41;;;;;;;;;;;;;;;18.83;45.93;100500.38;2083991;28;19966;-62
2021/11/30 03:14:42;;;;;;;;;;;;;;;18.82;45.97;100499.50;2085673;28;19920;-61
2021/11/30 03:15:42;;;;;;;;;;;;;;;18.82;46.04;100499.50;2082298;28;20412;-61
2021/11/30 03:16:45;;;;;;;;;;;;;;;18.83;45.93;100500.38;2083746;28;19923;-61
2021/11/30 03:17:46;;;;;;;;;;;;;;;18.82;46.01;100501.38;2085183;28;19970;-61
2021/11/30 03:18:46;;;;;;;;;;;;;;;18.82;46.02;100502.25;2083495;28;20344;-61
2021/11/30 03:19:47;;;;;;;;;;;;;;;18.81;46.05;100508.72;2085647;28;19912;-62
2021/11/30 03:20:47;;;;;;;;;;;;;;;18.82;45.89;100515.91;2083234;28;19927;-61
2021/11/30 03:21:48;;;;;;;;;;;;;;;18.81;46.01;100507.84;2083598;28;19909;-62
2021/11/30 03:22:48;;;;;;;;;;;;;;;18.81;46.06;100505.09;2085428;28;20480;-61
2021/11/30 03:23:48;;;;;;;;;;;;;;;18.81;45.94;100497.81;2083146;28;19916;-61
2021/11/30 03:24:48;;;;;;;;;;;;;;;18.80;45.96;100501.50;2072909;28;19940;-61
2021/11/30 03:25:49;;;;;;;;;;;;;;;18.80;45.95;100501.50;2076159;28;19923;-62
2021/11/30 03:26:49;;;;;;;;;;;;;;;18.81;46.02;100507.84;2082492;28;19924;-62
2021/11/30 03:27:50;;;;;;;;;;;;;;;18.80;46.04;100509.72;2084606;28;20003;-62
2021/11/30 03:28:50;;;;;;;;;;;;;;;18.81;46.01;100514.19;2078090;28;19921;-61
2021/11/30 03:29:52;;;;;;;;;;;;;;;18.79;45.97;100504.38;2082228;28;19916;-62
2021/11/30 03:31:07;;;;;;;;;;;;;;;18.80;45.97;100517.03;2082709;28;19917;-61
2021/11/30 03:32:11;;;;;;;;;;;;;;;18.78;46.00;100514.44;2083257;28;20012;-62
2021/11/30 03:34:47;;;;;;;;;;;;;;;18.77;46.04;100512.72;2060843;28;19949;-62
2021/11/30 03:35:48;;;;;;;;;;;;;;;18.77;45.98;100520.06;2065803;28;19917;-62
2021/11/30 03:36:49;;;;;;;;;;;;;;;18.76;45.84;100516.44;2066473;28;20016;-61
2021/11/30 03:37:50;;;;;;;;;;;;;;;18.77;45.95;100512.72;2084723;28;20379;-61
2021/11/30 03:38:50;;;;;;;;;;;;;;;18.76;45.93;100516.44;2082867;28;19955;-61
2021/11/30 03:39:52;;;;;;;;;;;;;;;18.76;46.05;100510.13;2083053;28;20516;-62
2021/11/30 03:40:52;;;;;;;;;;;;;;;18.76;45.98;100516.44;2080064;28;19920;-62
2021/11/30 03:41:54;;;;;;;;;;;;;;;18.75;46.01;100509.22;2084983;28;19919;-62
2021/11/30 03:42:54;;;;;;;;;;;;;;;18.76;46.02;100516.44;2082905;28;20602;-61
2021/11/30 03:43:54;;;;;;;;;;;;;;;18.76;46.18;100515.59;2083919;28;19947;-62
2021/11/30 03:44:55;;;;;;;;;;;;;;;18.74;45.97;100518.44;2084851;28;20675;-62
2021/11/30 03:45:55;;;;;;;;;;;;;;;18.75;46.00;100516.56;2084369;28;19985;-62
2021/11/30 03:46:56;;;;;;;;;;;;;;;18.74;45.99;100518.44;2084937;28;19924;-62
2021/11/30 03:47:56;;;;;;;;;;;;;;;18.74;46.08;100523.91;2082648;28;19917;-61
2021/11/30 03:48:57;;;;;;;;;;;;;;;18.74;45.95;100517.53;2082045;28;20326;-62
2021/11/30 03:49:57;;;;;;;;;;;;;;;18.74;46.08;100523.91;2084776;28;20373;-62
2021/11/30 03:50:58;;;;;;;;;;;;;;;18.73;46.05;100524.88;2080883;28;20436;-61
2021/11/30 03:51:58;;;;;;;;;;;;;;;18.73;45.96;100538.53;2084087;28;19928;-62
2021/11/30 03:52:58;;;;;;;;;;;;;;;18.73;45.99;100533.06;2084192;28;19942;-61
2021/11/30 03:53:59;;;;;;;;;;;;;;;18.74;46.08;100534.81;2083401;28;19917;-62
2021/11/30 03:54:59;;;;;;;;;;;;;;;18.73;46.10;100541.25;2084952;28;19920;-61
2021/11/30 03:55:59;;;;;;;;;;;;;;;18.72;46.02;100539.56;2084023;28;20061;-61
2021/11/30 03:57:00;;;;;;;;;;;;;;;18.72;46.05;100542.28;2091483;28;19916;-61
2021/11/30 03:58:00;;;;;;;;;;;;;;;18.73;46.16;100543.13;2090777;28;19923;-61
2021/11/30 03:59:00;;;;;;;;;;;;;;;18.72;46.16;100538.69;2075309;28;19916;-62
2021/11/30 04:00:05;;;;;;;;;;;;;;;18.70;46.18;100538.81;2074912;28;20383;-62
2021/11/30 04:01:06;;;;;;;;;;;;;;;18.71;46.09;100534.22;2082522;28;20027;-61
2021/11/30 04:02:06;;;;;;;;;;;;;;;18.70;46.25;100547.00;2084038;28;19956;-62
2021/11/30 04:03:06;;;;;;;;;;;;;;;18.70;46.07;100546.16;2084449;28;19987;-62
2021/11/30 04:04:27;;;;;;;;;;;;;;;18.70;46.10;100543.41;2084910;28;19920;-62
2021/11/30 04:05:27;;;;;;;;;;;;;;;18.70;46.18;100543.41;2080675;28;20349;-62
2021/11/30 04:06:27;;;;;;;;;;;;;;;18.69;46.07;100538.94;2083968;28;19908;-62
2021/11/30 04:07:27;;;;;;;;;;;;;;;18.68;46.04;100535.34;2085183;28;19916;-62
2021/11/30 04:08:28;;;;;;;;;;;;;;;18.68;46.12;100535.34;2090236;28;19954;-62
2021/11/30 04:09:28;;;;;;;;;;;;;;;18.67;46.25;100533.63;2091625;28;19916;-62
2021/11/30 04:10:29;;;;;;;;;;;;;;;18.67;46.13;100530.91;2084402;28;19916;-62
2021/11/30 04:11:29;;;;;;;;;;;;;;;18.67;46.26;100532.75;2082399;28;20472;-62
2021/11/30 04:12:29;;;;;;;;;;;;;;;18.65;46.14;100535.63;2084854;28;20417;-62
2021/11/30 04:13:30;;;;;;;;;;;;;;;18.66;46.16;100534.63;2088030;28;19908;-62
2021/11/30 04:14:30;;;;;;;;;;;;;;;18.66;46.34;100540.09;2084022;28;19921;-62
2021/11/30 04:15:30;;;;;;;;;;;;;;;18.65;46.28;100541.09;2083016;28;19968;-62
2021/11/30 04:16:31;;;;;;;;;;;;;;;18.66;46.17;100542.81;2084553;28;19924;-62
2021/11/30 04:17:32;;;;;;;;;;;;;;;18.64;46.26;100537.50;2085293;28;19909;-62
2021/11/30 04:18:33;;;;;;;;;;;;;;;18.65;46.30;100538.38;2083907;28;20648;-62
2021/11/30 04:19:34;;;;;;;;;;;;;;;18.65;46.24;100546.56;2086042;28;19912;-62
2021/11/30 04:20:36;;;;;;;;;;;;;;;18.64;46.14;100539.34;2085423;28;19916;-62
2021/11/30 04:21:41;;;;;;;;;;;;;;;18.64;46.38;100542.06;2075586;28;19917;-62
2021/11/30 04:22:42;;;;;;;;;;;;;;;18.62;46.29;100547.69;2074491;28;19916;-62
2021/11/30 04:23:42;;;;;;;;;;;;;;;18.63;46.16;100548.56;2080873;28;19959;-62
2021/11/30 04:24:43;;;;;;;;;;;;;;;18.63;46.33;100548.56;2080336;28;20228;-62
2021/11/30 04:25:43;;;;;;;;;;;;;;;18.62;46.15;100546.84;2083096;28;19966;-62
2021/11/30 04:26:43;;;;;;;;;;;;;;;18.62;46.21;100541.38;2084101;28;19916;-62
2021/11/30 04:27:44;;;;;;;;;;;;;;;18.61;46.36;100545.09;2083855;28;19917;-62
2021/11/30 04:28:44;;;;;;;;;;;;;;;18.61;46.33;100539.63;2083834;28;19916;-62
2021/11/30 04:29:48;;;;;;;;;;;;;;;18.61;46.11;100539.63;2081753;28;20012;-62
2021/11/30 04:30:48;;;;;;;;;;;;;;;18.60;46.12;100552.41;2081199;28;19948;-62
2021/11/30 04:31:48;;;;;;;;;;;;;;;18.60;46.20;100536.03;2083695;28;19924;-62
2021/11/30 04:32:49;;;;;;;;;;;;;;;18.61;46.20;100545.09;2083566;28;19950;-62
2021/11/30 04:33:49;;;;;;;;;;;;;;;18.60;46.33;100544.22;2082966;28;19948;-62
2021/11/30 04:34:50;;;;;;;;;;;;;;;18.60;46.19;100543.38;2084208;28;19924;-62
2021/11/30 04:35:50;;;;;;;;;;;;;;;18.60;46.28;100559.75;2084902;28;19916;-62
2021/11/30 04:36:53;;;;;;;;;;;;;;;18.59;46.24;100553.44;2083968;28;19917;-62
2021/11/30 04:37:54;;;;;;;;;;;;;;;18.59;46.29;100560.72;2082570;28;19999;-62
2021/11/30 04:38:56;;;;;;;;;;;;;;;18.58;46.29;100557.16;2085069;28;19916;-62
2021/11/30 04:39:56;;;;;;;;;;;;;;;18.58;46.21;100553.56;2083081;28;19916;-62
2021/11/30 04:40:56;;;;;;;;;;;;;;;18.57;46.40;100562.72;2083632;28;20012;-62
2021/11/30 04:41:57;;;;;;;;;;;;;;;18.58;46.28;100564.47;2084299;28;19965;-62
2021/11/30 04:42:57;;;;;;;;;;;;;;;18.57;46.25;100566.34;2084179;28;19981;-62
2021/11/30 04:44:07;;;;;;;;;;;;;;;18.57;46.29;100565.47;2082703;28;19920;-62
2021/11/30 04:45:10;;;;;;;;;;;;;;;18.56;46.39;100570.06;2083924;28;19920;-62
2021/11/30 04:46:15;;;;;;;;;;;;;;;18.56;46.17;100563.75;2068335;28;20439;-62
2021/11/30 04:47:15;;;;;;;;;;;;;;;18.55;46.41;100562.03;2068507;28;20707;-62
2021/11/30 04:48:15;;;;;;;;;;;;;;;18.55;46.26;100572.94;2084640;28;20378;-62
2021/11/30 04:49:27;;;;;;;;;;;;;;;18.53;46.34;100570.34;2083066;28;19959;-62
2021/11/30 04:50:31;;;;;;;;;;;;;;;18.54;46.29;100571.19;2083140;28;19916;-62
2021/11/30 04:51:32;;;;;;;;;;;;;;;18.53;46.52;100574.94;2084236;28;20013;-62
2021/11/30 04:52:34;;;;;;;;;;;;;;;18.52;46.41;100574.09;2083004;28;19924;-62
2021/11/30 04:53:35;;;;;;;;;;;;;;;18.52;46.43;100573.19;2083965;28;19963;-62
2021/11/30 04:54:35;;;;;;;;;;;;;;;18.53;46.35;100580.41;2083822;28;19917;-62
2021/11/30 04:55:35;;;;;;;;;;;;;;;18.52;46.40;100573.19;2081402;28;19926;-62
2021/11/30 04:56:36;;;;;;;;;;;;;;;18.51;46.34;100568.75;2084867;28;20579;-62
2021/11/30 04:57:36;;;;;;;;;;;;;;;18.51;46.44;100566.00;2082530;28;19904;-62
2021/11/30 04:58:36;;;;;;;;;;;;;;;18.50;46.26;100570.63;2074810;28;20355;-62
2021/11/30 04:59:37;;;;;;;;;;;;;;;18.50;46.40;100570.63;2074623;28;20004;-62
2021/11/30 05:00:38;;;;;;;;;;;;;;;18.49;46.34;100578.94;2080851;28;19924;-62
2021/11/30 05:01:39;;;;;;;;;;;;;;;18.49;46.34;100584.38;2084813;28;20534;-62
2021/11/30 05:02:39;;;;;;;;;;;;;;;18.49;46.45;100584.38;2082350;28;19924;-62
2021/11/30 05:03:40;;;;;;;;;;;;;;;18.48;46.54;100579.94;2082268;28;20000;-62
2021/11/30 05:04:41;;;;;;;;;;;;;;;18.49;46.41;100584.38;2084073;28;19916;-62
2021/11/30 05:05:41;;;;;;;;;;;;;;;18.48;46.46;100578.06;2083639;28;19916;-62
2021/11/30 05:06:43;;;;;;;;;;;;;;;18.47;46.60;100586.38;2083896;28;19920;-62
2021/11/30 05:07:43;;;;;;;;;;;;;;;18.47;46.58;100580.94;2078493;28;19924;-62
2021/11/30 05:08:44;;;;;;;;;;;;;;;18.46;46.45;100582.78;2083526;28;19924;-62
2021/11/30 05:09:45;;;;;;;;;;;;;;;18.46;46.31;100584.66;2084134;28;19924;-62
2021/11/30 05:10:45;;;;;;;;;;;;;;;18.45;46.45;100582.91;2083088;28;19924;-62
2021/11/30 05:11:45;;;;;;;;;;;;;;;18.45;46.42;100585.66;2083688;28;19943;-62
2021/11/30 05:12:46;;;;;;;;;;;;;;;18.45;46.40;100588.38;2082319;28;20006;-62
2021/11/30 05:13:46;;;;;;;;;;;;;;;18.44;46.57;100587.53;2083042;28;19912;-62
2021/11/30 05:14:47;;;;;;;;;;;;;;;18.43;46.60;100594.84;2079734;28;20035;-62
2021/11/30 05:15:47;;;;;;;;;;;;;;;18.43;46.40;100591.25;2083363;28;19939;-62
2021/11/30 05:16:47;;;;;;;;;;;;;;;18.43;46.54;100592.13;2088986;28;19953;-61
2021/11/30 05:17:48;;;;;;;;;;;;;;;18.42;46.68;100595.88;2082971;28;19942;-61
2021/11/30 05:18:48;;;;;;;;;;;;;;;18.41;46.68;100588.66;2083250;28;20394;-62
2021/11/30 05:19:48;;;;;;;;;;;;;;;18.40;46.74;100592.41;2083562;28;19923;-61
2021/11/30 05:20:50;;;;;;;;;;;;;;;18.41;46.49;100594.13;2085609;28;19965;-61
2021/11/30 05:21:51;;;;;;;;;;;;;;;18.41;46.52;100593.25;2083624;28;19922;-62
2021/11/30 05:22:53;;;;;;;;;;;;;;;18.40;46.71;100597.00;2073550;28;19924;-61